sensor_id;sensor_type;location;lat;lon;timestamp;P1;durP1;ratioP1;P2;durP2;ratioP2
10465;SDS011;5280;42.600;23.556;2023-02-01T00:00:13;5.37;;;3.97;;
10465;SDS011;5280;42.600;23.556;2023-02-01T00:02:41;3.70;;;3.40;;
10465;SDS011;5280;42.600;23.556;2023-02-01T00:05:08;5.13;;;4.63;;
10465;SDS011;5280;42.600;23.556;2023-02-01T00:07:37;3.83;;;3.53;;
10465;SDS011;5280;42.600;23.556;2023-02-01T00:10:04;4.57;;;3.83;;
10465;SDS011;5280;42.600;23.556;2023-02-01T00:12:33;4.13;;;3.80;;
10465;SDS011;5280;42.600;23.556;2023-02-01T00:15:00;4.10;;;3.80;;
10465;SDS011;5280;42.600;23.556;2023-02-01T00:17:26;4.50;;;3.80;;
10465;SDS011;5280;42.600;23.556;2023-02-01T00:19:53;4.97;;;4.20;;
10465;SDS011;5280;42.600;23.556;2023-02-01T00:22:20;4.40;;;4.03;;
10465;SDS011;5280;42.600;23.556;2023-02-01T00:24:48;4.90;;;3.77;;
10465;SDS011;5280;42.600;23.556;2023-02-01T00:27:15;5.83;;;4.53;;
10465;SDS011;5280;42.600;23.556;2023-02-01T00:29:45;4.60;;;4.20;;
10465;SDS011;5280;42.600;23.556;2023-02-01T00:32:12;5.07;;;4.47;;
10465;SDS011;5280;42.600;23.556;2023-02-01T00:34:39;5.00;;;4.47;;
10465;SDS011;5280;42.600;23.556;2023-02-01T00:37:06;5.07;;;4.63;;
10465;SDS011;5280;42.600;23.556;2023-02-01T00:39:32;4.50;;;4.03;;
10465;SDS011;5280;42.600;23.556;2023-02-01T00:42:01;4.93;;;4.43;;
10465;SDS011;5280;42.600;23.556;2023-02-01T00:44:28;5.13;;;4.27;;
10465;SDS011;5280;42.600;23.556;2023-02-01T00:46:58;5.30;;;4.80;;
10465;SDS011;5280;42.600;23.556;2023-02-01T00:49:25;5.33;;;4.50;;
10465;SDS011;5280;42.600;23.556;2023-02-01T00:51:52;4.83;;;4.33;;
10465;SDS011;5280;42.600;23.556;2023-02-01T00:54:18;4.73;;;4.20;;
10465;SDS011;5280;42.600;23.556;2023-02-01T00:56:45;4.30;;;3.90;;
10465;SDS011;5280;42.600;23.556;2023-02-01T00:59:13;4.30;;;4.00;;
10465;SDS011;5280;42.600;23.556;2023-02-01T01:01:40;4.93;;;4.50;;
10465;SDS011;5280;42.600;23.556;2023-02-01T01:04:07;5.20;;;4.70;;
10465;SDS011;5280;42.600;23.556;2023-02-01T01:06:34;4.87;;;4.10;;
10465;SDS011;5280;42.600;23.556;2023-02-01T01:09:02;6.07;;;4.30;;
10465;SDS011;5280;42.600;23.556;2023-02-01T01:11:30;6.27;;;4.13;;
10465;SDS011;5280;42.600;23.556;2023-02-01T01:13:58;6.70;;;4.70;;
10465;SDS011;5280;42.600;23.556;2023-02-01T01:16:28;5.60;;;4.57;;
10465;SDS011;5280;42.600;23.556;2023-02-01T01:18:56;4.13;;;3.73;;
10465;SDS011;5280;42.600;23.556;2023-02-01T01:21:23;3.70;;;3.27;;
10465;SDS011;5280;42.600;23.556;2023-02-01T01:23:50;4.83;;;3.90;;
10465;SDS011;5280;42.600;23.556;2023-02-01T01:26:18;4.07;;;3.60;;
10465;SDS011;5280;42.600;23.556;2023-02-01T01:28:47;3.43;;;2.90;;
10465;SDS011;5280;42.600;23.556;2023-02-01T01:31:15;4.20;;;3.53;;
10465;SDS011;5280;42.600;23.556;2023-02-01T01:33:46;4.57;;;3.50;;
10465;SDS011;5280;42.600;23.556;2023-02-01T01:36:14;4.40;;;3.30;;
10465;SDS011;5280;42.600;23.556;2023-02-01T01:38:42;3.10;;;2.90;;
10465;SDS011;5280;42.600;23.556;2023-02-01T01:41:11;3.00;;;2.80;;
10465;SDS011;5280;42.600;23.556;2023-02-01T01:43:53;3.07;;;2.57;;
10465;SDS011;5280;42.600;23.556;2023-02-01T01:46:22;2.40;;;2.20;;
10465;SDS011;5280;42.600;23.556;2023-02-01T01:48:53;3.07;;;2.50;;
10465;SDS011;5280;42.600;23.556;2023-02-01T01:51:26;2.37;;;2.27;;
10465;SDS011;5280;42.600;23.556;2023-02-01T01:53:58;2.90;;;2.60;;
10465;SDS011;5280;42.600;23.556;2023-02-01T01:56:28;2.80;;;2.60;;
10465;SDS011;5280;42.600;23.556;2023-02-01T01:58:57;2.97;;;2.30;;
10465;SDS011;5280;42.600;23.556;2023-02-01T02:01:27;2.37;;;2.27;;
10465;SDS011;5280;42.600;23.556;2023-02-01T02:03:56;3.60;;;2.27;;
10465;SDS011;5280;42.600;23.556;2023-02-01T02:06:30;4.43;;;2.33;;
10465;SDS011;5280;42.600;23.556;2023-02-01T02:09:04;3.80;;;2.80;;
10465;SDS011;5280;42.600;23.556;2023-02-01T02:11:31;2.43;;;2.20;;
10465;SDS011;5280;42.600;23.556;2023-02-01T02:13:58;3.27;;;2.53;;
10465;SDS011;5280;42.600;23.556;2023-02-01T02:16:32;3.20;;;2.87;;
10465;SDS011;5280;42.600;23.556;2023-02-01T02:19:14;2.73;;;2.23;;
10465;SDS011;5280;42.600;23.556;2023-02-01T02:22:05;5.53;;;2.60;;
10465;SDS011;5280;42.600;23.556;2023-02-01T02:24:56;3.37;;;2.23;;
10465;SDS011;5280;42.600;23.556;2023-02-01T02:27:48;2.60;;;2.40;;
10465;SDS011;5280;42.600;23.556;2023-02-01T02:33:37;3.23;;;2.63;;
10465;SDS011;5280;42.600;23.556;2023-02-01T02:36:15;3.60;;;2.50;;
10465;SDS011;5280;42.600;23.556;2023-02-01T02:38:47;2.53;;;2.33;;
10465;SDS011;5280;42.600;23.556;2023-02-01T02:41:22;6.63;;;2.50;;
10465;SDS011;5280;42.600;23.556;2023-02-01T02:44:17;3.87;;;2.93;;
10465;SDS011;5280;42.600;23.556;2023-02-01T02:47:08;3.20;;;2.63;;
10465;SDS011;5280;42.600;23.556;2023-02-01T02:49:52;2.30;;;2.10;;
10465;SDS011;5280;42.600;23.556;2023-02-01T02:52:42;2.43;;;2.23;;
10465;SDS011;5280;42.600;23.556;2023-02-01T02:55:32;4.07;;;2.43;;
10465;SDS011;5280;42.600;23.556;2023-02-01T02:58:02;3.47;;;2.50;;
10465;SDS011;5280;42.600;23.556;2023-02-01T03:00:48;3.40;;;2.83;;
10465;SDS011;5280;42.600;23.556;2023-02-01T03:03:36;2.80;;;2.30;;
10465;SDS011;5280;42.600;23.556;2023-02-01T03:06:23;5.43;;;2.40;;
10465;SDS011;5280;42.600;23.556;2023-02-01T03:08:50;4.00;;;2.37;;
10465;SDS011;5280;42.600;23.556;2023-02-01T03:11:22;3.63;;;2.53;;
10465;SDS011;5280;42.600;23.556;2023-02-01T03:14:10;2.73;;;2.53;;
10465;SDS011;5280;42.600;23.556;2023-02-01T03:16:40;2.47;;;2.27;;
10465;SDS011;5280;42.600;23.556;2023-02-01T03:19:11;3.87;;;2.73;;
10465;SDS011;5280;42.600;23.556;2023-02-01T03:21:47;4.23;;;2.73;;
10465;SDS011;5280;42.600;23.556;2023-02-01T03:24:21;3.53;;;2.60;;
10465;SDS011;5280;42.600;23.556;2023-02-01T03:26:58;3.10;;;2.80;;
10465;SDS011;5280;42.600;23.556;2023-02-01T03:29:31;2.67;;;2.47;;
10465;SDS011;5280;42.600;23.556;2023-02-01T03:32:03;2.60;;;2.40;;
10465;SDS011;5280;42.600;23.556;2023-02-01T03:34:30;3.87;;;2.47;;
10465;SDS011;5280;42.600;23.556;2023-02-01T03:36:59;3.10;;;2.13;;
10465;SDS011;5280;42.600;23.556;2023-02-01T03:39:31;2.40;;;2.20;;
10465;SDS011;5280;42.600;23.556;2023-02-01T03:42:01;2.67;;;2.37;;
10465;SDS011;5280;42.600;23.556;2023-02-01T03:44:31;2.20;;;1.90;;
10465;SDS011;5280;42.600;23.556;2023-02-01T03:47:02;3.97;;;2.20;;
10465;SDS011;5280;42.600;23.556;2023-02-01T03:49:33;2.40;;;1.97;;
10465;SDS011;5280;42.600;23.556;2023-02-01T03:52:03;2.20;;;2.10;;
10465;SDS011;5280;42.600;23.556;2023-02-01T03:54:34;2.33;;;1.90;;
10465;SDS011;5280;42.600;23.556;2023-02-01T03:57:03;2.10;;;1.90;;
10465;SDS011;5280;42.600;23.556;2023-02-01T03:59:34;2.30;;;1.80;;
10465;SDS011;5280;42.600;23.556;2023-02-01T04:02:03;2.27;;;1.60;;
10465;SDS011;5280;42.600;23.556;2023-02-01T04:04:30;3.93;;;2.30;;
10465;SDS011;5280;42.600;23.556;2023-02-01T04:06:57;2.47;;;2.17;;
10465;SDS011;5280;42.600;23.556;2023-02-01T04:09:25;6.77;;;2.23;;
10465;SDS011;5280;42.600;23.556;2023-02-01T04:11:52;1.97;;;1.83;;
10465;SDS011;5280;42.600;23.556;2023-02-01T04:14:19;3.03;;;1.90;;
10465;SDS011;5280;42.600;23.556;2023-02-01T04:16:46;3.17;;;1.70;;
10465;SDS011;5280;42.600;23.556;2023-02-01T04:19:13;3.30;;;1.90;;
10465;SDS011;5280;42.600;23.556;2023-02-01T04:21:39;2.23;;;2.00;;
10465;SDS011;5280;42.600;23.556;2023-02-01T04:24:06;2.10;;;1.90;;
10465;SDS011;5280;42.600;23.556;2023-02-01T04:26:35;1.67;;;1.57;;
10465;SDS011;5280;42.600;23.556;2023-02-01T04:29:01;1.77;;;1.67;;
10465;SDS011;5280;42.600;23.556;2023-02-01T04:31:28;3.03;;;1.77;;
10465;SDS011;5280;42.600;23.556;2023-02-01T04:33:55;1.80;;;1.70;;
10465;SDS011;5280;42.600;23.556;2023-02-01T04:36:23;2.23;;;2.03;;
10465;SDS011;5280;42.600;23.556;2023-02-01T04:38:50;2.53;;;1.90;;
10465;SDS011;5280;42.600;23.556;2023-02-01T04:41:17;1.87;;;1.70;;
10465;SDS011;5280;42.600;23.556;2023-02-01T04:43:46;2.20;;;2.00;;
10465;SDS011;5280;42.600;23.556;2023-02-01T04:46:13;2.37;;;1.90;;
10465;SDS011;5280;42.600;23.556;2023-02-01T04:48:40;2.00;;;1.90;;
10465;SDS011;5280;42.600;23.556;2023-02-01T04:51:08;2.97;;;1.60;;
10465;SDS011;5280;42.600;23.556;2023-02-01T04:53:35;2.00;;;1.90;;
10465;SDS011;5280;42.600;23.556;2023-02-01T04:56:02;2.20;;;1.80;;
10465;SDS011;5280;42.600;23.556;2023-02-01T04:58:30;2.50;;;2.17;;
10465;SDS011;5280;42.600;23.556;2023-02-01T05:00:58;4.70;;;2.30;;
10465;SDS011;5280;42.600;23.556;2023-02-01T05:03:27;2.37;;;2.17;;
10465;SDS011;5280;42.600;23.556;2023-02-01T05:05:54;2.30;;;2.10;;
10465;SDS011;5280;42.600;23.556;2023-02-01T05:08:24;2.87;;;2.40;;
10465;SDS011;5280;42.600;23.556;2023-02-01T05:10:52;3.07;;;2.30;;
10465;SDS011;5280;42.600;23.556;2023-02-01T05:13:18;3.47;;;2.60;;
10465;SDS011;5280;42.600;23.556;2023-02-01T05:16:04;3.67;;;2.40;;
10465;SDS011;5280;42.600;23.556;2023-02-01T05:18:32;4.13;;;2.70;;
10465;SDS011;5280;42.600;23.556;2023-02-01T05:20:58;4.77;;;2.93;;
10465;SDS011;5280;42.600;23.556;2023-02-01T05:23:26;5.63;;;2.30;;
10465;SDS011;5280;42.600;23.556;2023-02-01T05:25:57;3.90;;;2.87;;
10465;SDS011;5280;42.600;23.556;2023-02-01T05:28:24;4.50;;;2.93;;
10465;SDS011;5280;42.600;23.556;2023-02-01T05:30:51;2.77;;;2.47;;
10465;SDS011;5280;42.600;23.556;2023-02-01T05:33:19;3.37;;;2.60;;
10465;SDS011;5280;42.600;23.556;2023-02-01T05:35:46;3.50;;;3.17;;
10465;SDS011;5280;42.600;23.556;2023-02-01T05:38:13;4.10;;;3.00;;
10465;SDS011;5280;42.600;23.556;2023-02-01T05:40:40;5.13;;;3.33;;
10465;SDS011;5280;42.600;23.556;2023-02-01T05:43:06;5.53;;;2.93;;
10465;SDS011;5280;42.600;23.556;2023-02-01T05:45:39;4.50;;;3.10;;
10465;SDS011;5280;42.600;23.556;2023-02-01T05:48:06;6.00;;;3.20;;
10465;SDS011;5280;42.600;23.556;2023-02-01T05:50:34;4.00;;;3.13;;
10465;SDS011;5280;42.600;23.556;2023-02-01T05:53:00;5.10;;;3.03;;
10465;SDS011;5280;42.600;23.556;2023-02-01T05:55:27;4.37;;;3.10;;
10465;SDS011;5280;42.600;23.556;2023-02-01T05:57:54;4.90;;;3.53;;
10465;SDS011;5280;42.600;23.556;2023-02-01T06:00:21;5.83;;;3.20;;
10465;SDS011;5280;42.600;23.556;2023-02-01T06:02:49;6.00;;;3.00;;
10465;SDS011;5280;42.600;23.556;2023-02-01T06:05:16;6.40;;;3.23;;
10465;SDS011;5280;42.600;23.556;2023-02-01T06:07:44;3.23;;;2.97;;
10465;SDS011;5280;42.600;23.556;2023-02-01T06:10:11;4.33;;;3.23;;
10465;SDS011;5280;42.600;23.556;2023-02-01T06:12:37;4.57;;;3.60;;
10465;SDS011;5280;42.600;23.556;2023-02-01T06:15:04;4.87;;;3.60;;
10465;SDS011;5280;42.600;23.556;2023-02-01T06:17:32;3.83;;;3.53;;
10465;SDS011;5280;42.600;23.556;2023-02-01T06:19:59;5.17;;;3.57;;
10465;SDS011;5280;42.600;23.556;2023-02-01T06:22:26;5.33;;;3.53;;
10465;SDS011;5280;42.600;23.556;2023-02-01T06:24:54;6.30;;;3.20;;
10465;SDS011;5280;42.600;23.556;2023-02-01T06:27:20;4.57;;;3.00;;
10465;SDS011;5280;42.600;23.556;2023-02-01T06:29:47;5.07;;;3.43;;
10465;SDS011;5280;42.600;23.556;2023-02-01T06:32:14;4.10;;;3.10;;
10465;SDS011;5280;42.600;23.556;2023-02-01T06:34:42;5.03;;;3.47;;
10465;SDS011;5280;42.600;23.556;2023-02-01T06:37:09;3.87;;;3.20;;
10465;SDS011;5280;42.600;23.556;2023-02-01T06:39:39;4.50;;;2.80;;
10465;SDS011;5280;42.600;23.556;2023-02-01T06:42:07;3.67;;;3.30;;
10465;SDS011;5280;42.600;23.556;2023-02-01T06:44:34;3.80;;;2.80;;
10465;SDS011;5280;42.600;23.556;2023-02-01T06:47:00;5.07;;;2.90;;
10465;SDS011;5280;42.600;23.556;2023-02-01T06:49:27;3.20;;;2.63;;
10465;SDS011;5280;42.600;23.556;2023-02-01T06:51:54;6.47;;;2.80;;
10465;SDS011;5280;42.600;23.556;2023-02-01T06:54:20;4.57;;;2.80;;
10465;SDS011;5280;42.600;23.556;2023-02-01T06:56:47;5.67;;;3.00;;
10465;SDS011;5280;42.600;23.556;2023-02-01T06:59:15;3.60;;;2.83;;
10465;SDS011;5280;42.600;23.556;2023-02-01T07:01:42;4.40;;;3.00;;
10465;SDS011;5280;42.600;23.556;2023-02-01T07:04:09;2.17;;;1.97;;
10465;SDS011;5280;42.600;23.556;2023-02-01T07:06:37;3.50;;;2.03;;
10465;SDS011;5280;42.600;23.556;2023-02-01T07:09:04;3.87;;;2.30;;
10465;SDS011;5280;42.600;23.556;2023-02-01T07:11:31;3.13;;;2.27;;
10465;SDS011;5280;42.600;23.556;2023-02-01T07:13:58;3.60;;;2.37;;
10465;SDS011;5280;42.600;23.556;2023-02-01T07:16:26;5.40;;;2.10;;
10465;SDS011;5280;42.600;23.556;2023-02-01T07:18:54;3.97;;;2.30;;
10465;SDS011;5280;42.600;23.556;2023-02-01T07:21:20;2.33;;;2.13;;
10465;SDS011;5280;42.600;23.556;2023-02-01T07:23:47;4.97;;;2.77;;
10465;SDS011;5280;42.600;23.556;2023-02-01T07:26:14;2.87;;;1.90;;
10465;SDS011;5280;42.600;23.556;2023-02-01T07:28:41;4.67;;;2.37;;
10465;SDS011;5280;42.600;23.556;2023-02-01T07:31:09;2.50;;;2.30;;
10465;SDS011;5280;42.600;23.556;2023-02-01T07:33:39;5.17;;;2.33;;
10465;SDS011;5280;42.600;23.556;2023-02-01T07:36:07;4.03;;;2.40;;
10465;SDS011;5280;42.600;23.556;2023-02-01T07:38:37;7.40;;;2.40;;
10465;SDS011;5280;42.600;23.556;2023-02-01T07:41:04;4.10;;;2.23;;
10465;SDS011;5280;42.600;23.556;2023-02-01T07:43:33;4.53;;;2.00;;
10465;SDS011;5280;42.600;23.556;2023-02-01T07:46:00;2.50;;;2.20;;
10465;SDS011;5280;42.600;23.556;2023-02-01T07:48:28;3.83;;;2.57;;
10465;SDS011;5280;42.600;23.556;2023-02-01T07:51:00;3.63;;;2.80;;
10465;SDS011;5280;42.600;23.556;2023-02-01T07:53:28;5.33;;;2.80;;
10465;SDS011;5280;42.600;23.556;2023-02-01T07:55:56;6.07;;;2.27;;
10465;SDS011;5280;42.600;23.556;2023-02-01T07:58:23;6.30;;;2.20;;
10465;SDS011;5280;42.600;23.556;2023-02-01T08:00:51;3.03;;;2.73;;
10465;SDS011;5280;42.600;23.556;2023-02-01T08:03:35;4.20;;;3.33;;
10465;SDS011;5280;42.600;23.556;2023-02-01T08:06:04;3.07;;;2.23;;
10465;SDS011;5280;42.600;23.556;2023-02-01T08:08:31;3.70;;;1.90;;
10465;SDS011;5280;42.600;23.556;2023-02-01T08:10:58;2.57;;;2.00;;
10465;SDS011;5280;42.600;23.556;2023-02-01T08:13:25;3.40;;;1.83;;
10465;SDS011;5280;42.600;23.556;2023-02-01T08:15:52;2.87;;;1.90;;
10465;SDS011;5280;42.600;23.556;2023-02-01T08:18:23;4.13;;;2.30;;
10465;SDS011;5280;42.600;23.556;2023-02-01T08:20:50;2.30;;;1.87;;
10465;SDS011;5280;42.600;23.556;2023-02-01T08:23:18;3.03;;;2.33;;
10465;SDS011;5280;42.600;23.556;2023-02-01T08:25:45;1.73;;;1.50;;
10465;SDS011;5280;42.600;23.556;2023-02-01T08:28:13;1.93;;;1.83;;
10465;SDS011;5280;42.600;23.556;2023-02-01T08:30:40;3.97;;;2.13;;
10465;SDS011;5280;42.600;23.556;2023-02-01T08:33:08;3.20;;;1.90;;
10465;SDS011;5280;42.600;23.556;2023-02-01T08:35:37;2.37;;;1.73;;
10465;SDS011;5280;42.600;23.556;2023-02-01T08:38:04;4.90;;;1.80;;
10465;SDS011;5280;42.600;23.556;2023-02-01T08:40:32;3.87;;;2.20;;
10465;SDS011;5280;42.600;23.556;2023-02-01T08:42:59;3.90;;;2.17;;
10465;SDS011;5280;42.600;23.556;2023-02-01T08:45:26;4.57;;;1.73;;
10465;SDS011;5280;42.600;23.556;2023-02-01T08:47:55;2.23;;;2.03;;
10465;SDS011;5280;42.600;23.556;2023-02-01T08:50:23;4.63;;;2.13;;
10465;SDS011;5280;42.600;23.556;2023-02-01T08:52:51;1.80;;;1.70;;
10465;SDS011;5280;42.600;23.556;2023-02-01T08:55:18;2.07;;;1.73;;
10465;SDS011;5280;42.600;23.556;2023-02-01T08:57:47;3.93;;;1.60;;
10465;SDS011;5280;42.600;23.556;2023-02-01T09:00:14;2.00;;;1.80;;
10465;SDS011;5280;42.600;23.556;2023-02-01T09:02:45;3.47;;;2.00;;
10465;SDS011;5280;42.600;23.556;2023-02-01T09:05:12;3.57;;;2.30;;
10465;SDS011;5280;42.600;23.556;2023-02-01T09:07:41;2.13;;;1.93;;
10465;SDS011;5280;42.600;23.556;2023-02-01T09:10:09;2.57;;;2.37;;
10465;SDS011;5280;42.600;23.556;2023-02-01T09:12:36;3.13;;;2.20;;
10465;SDS011;5280;42.600;23.556;2023-02-01T09:15:06;1.97;;;1.70;;
10465;SDS011;5280;42.600;23.556;2023-02-01T09:17:35;3.93;;;2.30;;
10465;SDS011;5280;42.600;23.556;2023-02-01T09:20:02;5.37;;;2.70;;
10465;SDS011;5280;42.600;23.556;2023-02-01T09:22:30;3.63;;;2.20;;
10465;SDS011;5280;42.600;23.556;2023-02-01T09:24:59;6.50;;;3.17;;
10465;SDS011;5280;42.600;23.556;2023-02-01T09:27:26;6.13;;;3.20;;
10465;SDS011;5280;42.600;23.556;2023-02-01T09:29:53;3.33;;;2.50;;
10465;SDS011;5280;42.600;23.556;2023-02-01T09:32:22;4.40;;;2.30;;
10465;SDS011;5280;42.600;23.556;2023-02-01T09:34:50;5.77;;;1.83;;
10465;SDS011;5280;42.600;23.556;2023-02-01T09:37:17;5.53;;;2.00;;
10465;SDS011;5280;42.600;23.556;2023-02-01T09:39:44;3.00;;;1.87;;
10465;SDS011;5280;42.600;23.556;2023-02-01T09:42:15;4.07;;;2.30;;
10465;SDS011;5280;42.600;23.556;2023-02-01T09:44:54;5.43;;;2.73;;
10465;SDS011;5280;42.600;23.556;2023-02-01T09:47:30;5.17;;;2.30;;
10465;SDS011;5280;42.600;23.556;2023-02-01T09:49:59;2.70;;;2.00;;
10465;SDS011;5280;42.600;23.556;2023-02-01T09:52:32;2.57;;;1.97;;
10465;SDS011;5280;42.600;23.556;2023-02-01T09:55:10;2.37;;;1.80;;
10465;SDS011;5280;42.600;23.556;2023-02-01T09:57:43;4.00;;;1.90;;
10465;SDS011;5280;42.600;23.556;2023-02-01T10:00:19;3.43;;;1.70;;
10465;SDS011;5280;42.600;23.556;2023-02-01T10:02:53;2.93;;;1.80;;
10465;SDS011;5280;42.600;23.556;2023-02-01T10:05:25;2.70;;;1.80;;
10465;SDS011;5280;42.600;23.556;2023-02-01T10:08:09;3.73;;;2.00;;
10465;SDS011;5280;42.600;23.556;2023-02-01T10:10:50;3.50;;;2.00;;
10465;SDS011;5280;42.600;23.556;2023-02-01T10:13:24;3.33;;;1.60;;
10465;SDS011;5280;42.600;23.556;2023-02-01T10:16:15;3.00;;;1.60;;
10465;SDS011;5280;42.600;23.556;2023-02-01T10:18:54;4.30;;;1.93;;
10465;SDS011;5280;42.600;23.556;2023-02-01T10:21:34;2.57;;;1.90;;
10465;SDS011;5280;42.600;23.556;2023-02-01T10:24:28;4.23;;;1.80;;
10465;SDS011;5280;42.600;23.556;2023-02-01T10:27:09;4.07;;;1.97;;
10465;SDS011;5280;42.600;23.556;2023-02-01T10:29:40;2.67;;;1.90;;
10465;SDS011;5280;42.600;23.556;2023-02-01T10:32:10;4.17;;;2.17;;
10465;SDS011;5280;42.600;23.556;2023-02-01T10:34:41;4.40;;;1.90;;
10465;SDS011;5280;42.600;23.556;2023-02-01T10:37:18;4.80;;;2.30;;
10465;SDS011;5280;42.600;23.556;2023-02-01T10:39:52;3.77;;;2.33;;
10465;SDS011;5280;42.600;23.556;2023-02-01T10:42:24;3.33;;;2.20;;
10465;SDS011;5280;42.600;23.556;2023-02-01T10:44:53;1.80;;;1.70;;
10465;SDS011;5280;42.600;23.556;2023-02-01T10:47:22;2.57;;;1.60;;
10465;SDS011;5280;42.600;23.556;2023-02-01T10:49:52;4.53;;;2.07;;
10465;SDS011;5280;42.600;23.556;2023-02-01T10:52:27;4.37;;;2.00;;
10465;SDS011;5280;42.600;23.556;2023-02-01T10:58:06;2.33;;;2.00;;
10465;SDS011;5280;42.600;23.556;2023-02-01T11:00:40;3.00;;;1.80;;
10465;SDS011;5280;42.600;23.556;2023-02-01T11:03:31;2.97;;;1.90;;
10465;SDS011;5280;42.600;23.556;2023-02-01T11:06:02;2.70;;;1.63;;
10465;SDS011;5280;42.600;23.556;2023-02-01T11:08:41;3.07;;;1.80;;
10465;SDS011;5280;42.600;23.556;2023-02-01T11:11:10;1.90;;;1.37;;
10465;SDS011;5280;42.600;23.556;2023-02-01T11:13:38;1.93;;;1.30;;
10465;SDS011;5280;42.600;23.556;2023-02-01T11:16:06;3.10;;;1.70;;
10465;SDS011;5280;42.600;23.556;2023-02-01T11:18:37;1.50;;;1.30;;
10465;SDS011;5280;42.600;23.556;2023-02-01T11:21:06;1.57;;;1.20;;
10465;SDS011;5280;42.600;23.556;2023-02-01T11:23:41;2.13;;;1.60;;
10465;SDS011;5280;42.600;23.556;2023-02-01T11:26:12;2.03;;;1.80;;
10465;SDS011;5280;42.600;23.556;2023-02-01T11:28:47;2.33;;;1.80;;
10465;SDS011;5280;42.600;23.556;2023-02-01T11:31:19;4.43;;;1.93;;
10465;SDS011;5280;42.600;23.556;2023-02-01T11:33:48;2.83;;;2.00;;
10465;SDS011;5280;42.600;23.556;2023-02-01T11:36:21;4.53;;;3.17;;
10465;SDS011;5280;42.600;23.556;2023-02-01T11:38:53;5.13;;;1.20;;
10465;SDS011;5280;42.600;23.556;2023-02-01T11:41:33;1.40;;;1.30;;
10465;SDS011;5280;42.600;23.556;2023-02-01T11:44:20;1.20;;;1.10;;
10465;SDS011;5280;42.600;23.556;2023-02-01T11:46:48;1.30;;;1.17;;
10465;SDS011;5280;42.600;23.556;2023-02-01T11:49:20;1.30;;;1.20;;
10465;SDS011;5280;42.600;23.556;2023-02-01T11:51:54;2.30;;;1.30;;
10465;SDS011;5280;42.600;23.556;2023-02-01T11:54:39;1.40;;;1.30;;
10465;SDS011;5280;42.600;23.556;2023-02-01T11:57:25;2.13;;;1.43;;
10465;SDS011;5280;42.600;23.556;2023-02-01T12:00:10;1.60;;;1.20;;
10465;SDS011;5280;42.600;23.556;2023-02-01T12:03:04;2.03;;;1.30;;
10465;SDS011;5280;42.600;23.556;2023-02-01T12:05:47;1.43;;;1.27;;
10465;SDS011;5280;42.600;23.556;2023-02-01T12:08:27;1.80;;;1.27;;
10465;SDS011;5280;42.600;23.556;2023-02-01T12:11:18;2.93;;;1.20;;
10465;SDS011;5280;42.600;23.556;2023-02-01T12:13:55;1.00;;;1.00;;
10465;SDS011;5280;42.600;23.556;2023-02-01T12:16:35;0.80;;;0.80;;
10465;SDS011;5280;42.600;23.556;2023-02-01T12:19:19;2.10;;;0.87;;
10465;SDS011;5280;42.600;23.556;2023-02-01T12:22:11;1.10;;;1.10;;
10465;SDS011;5280;42.600;23.556;2023-02-01T12:24:59;1.53;;;1.20;;
10465;SDS011;5280;42.600;23.556;2023-02-01T12:27:52;1.53;;;1.00;;
10465;SDS011;5280;42.600;23.556;2023-02-01T12:30:48;1.63;;;0.97;;
10465;SDS011;5280;42.600;23.556;2023-02-01T12:33:33;1.03;;;1.03;;
10465;SDS011;5280;42.600;23.556;2023-02-01T12:36:10;2.93;;;1.23;;
10465;SDS011;5280;42.600;23.556;2023-02-01T12:38:44;1.70;;;0.83;;
10465;SDS011;5280;42.600;23.556;2023-02-01T12:44:17;2.33;;;1.10;;
10465;SDS011;5280;42.600;23.556;2023-02-01T12:46:54;3.03;;;1.00;;
10465;SDS011;5280;42.600;23.556;2023-02-01T12:49:27;2.90;;;1.10;;
10465;SDS011;5280;42.600;23.556;2023-02-01T12:52:01;1.20;;;0.93;;
10465;SDS011;5280;42.600;23.556;2023-02-01T12:54:34;1.93;;;1.23;;
10465;SDS011;5280;42.600;23.556;2023-02-01T12:57:05;1.13;;;1.03;;
10465;SDS011;5280;42.600;23.556;2023-02-01T12:59:38;0.80;;;0.80;;
10465;SDS011;5280;42.600;23.556;2023-02-01T13:02:11;1.77;;;1.30;;
10465;SDS011;5280;42.600;23.556;2023-02-01T13:04:48;1.83;;;1.30;;
10465;SDS011;5280;42.600;23.556;2023-02-01T13:07:24;1.20;;;1.10;;
10465;SDS011;5280;42.600;23.556;2023-02-01T13:09:56;2.43;;;1.27;;
10465;SDS011;5280;42.600;23.556;2023-02-01T13:12:32;1.87;;;1.50;;
10465;SDS011;5280;42.600;23.556;2023-02-01T13:15:03;1.03;;;1.00;;
10465;SDS011;5280;42.600;23.556;2023-02-01T13:17:37;1.90;;;1.50;;
10465;SDS011;5280;42.600;23.556;2023-02-01T13:20:09;2.80;;;1.20;;
10465;SDS011;5280;42.600;23.556;2023-02-01T13:22:45;3.20;;;1.40;;
10465;SDS011;5280;42.600;23.556;2023-02-01T13:25:17;2.27;;;1.30;;
10465;SDS011;5280;42.600;23.556;2023-02-01T13:27:54;1.00;;;1.00;;
10465;SDS011;5280;42.600;23.556;2023-02-01T13:30:25;1.10;;;0.90;;
10465;SDS011;5280;42.600;23.556;2023-02-01T13:33:13;2.17;;;1.20;;
10465;SDS011;5280;42.600;23.556;2023-02-01T13:35:54;1.80;;;1.20;;
10465;SDS011;5280;42.600;23.556;2023-02-01T13:38:46;2.47;;;1.30;;
10465;SDS011;5280;42.600;23.556;2023-02-01T13:41:29;1.17;;;1.17;;
10465;SDS011;5280;42.600;23.556;2023-02-01T13:44:01;1.20;;;1.10;;
10465;SDS011;5280;42.600;23.556;2023-02-01T13:46:37;1.20;;;1.03;;
10465;SDS011;5280;42.600;23.556;2023-02-01T13:49:12;1.10;;;1.00;;
10465;SDS011;5280;42.600;23.556;2023-02-01T13:51:46;4.33;;;1.20;;
10465;SDS011;5280;42.600;23.556;2023-02-01T13:54:27;0.90;;;0.90;;
10465;SDS011;5280;42.600;23.556;2023-02-01T13:56:57;1.30;;;1.03;;
10465;SDS011;5280;42.600;23.556;2023-02-01T14:05:59;1.37;;;1.27;;
10465;SDS011;5280;42.600;23.556;2023-02-01T14:08:23;1.60;;;1.30;;
10465;SDS011;5280;42.600;23.556;2023-02-01T14:11:02;4.30;;;1.30;;
10465;SDS011;5280;42.600;23.556;2023-02-01T14:13:30;0.90;;;0.90;;
10465;SDS011;5280;42.600;23.556;2023-02-01T14:16:12;1.17;;;0.90;;
10465;SDS011;5280;42.600;23.556;2023-02-01T14:19:00;1.17;;;1.10;;
10465;SDS011;5280;42.600;23.556;2023-02-01T14:21:29;1.53;;;1.30;;
10465;SDS011;5280;42.600;23.556;2023-02-01T14:23:59;1.50;;;1.20;;
10465;SDS011;5280;42.600;23.556;2023-02-01T14:26:40;1.67;;;1.37;;
10465;SDS011;5280;42.600;23.556;2023-02-01T14:29:23;1.53;;;1.10;;
10465;SDS011;5280;42.600;23.556;2023-02-01T14:32:01;1.23;;;1.13;;
10465;SDS011;5280;42.600;23.556;2023-02-01T14:34:36;1.20;;;1.10;;
10465;SDS011;5280;42.600;23.556;2023-02-01T14:37:10;2.57;;;1.27;;
10465;SDS011;5280;42.600;23.556;2023-02-01T14:39:52;2.07;;;1.20;;
10465;SDS011;5280;42.600;23.556;2023-02-01T14:42:24;1.27;;;1.17;;
10465;SDS011;5280;42.600;23.556;2023-02-01T14:44:53;1.43;;;1.13;;
10465;SDS011;5280;42.600;23.556;2023-02-01T14:47:32;5.10;;;3.40;;
10465;SDS011;5280;42.600;23.556;2023-02-01T14:50:02;4.27;;;1.60;;
10465;SDS011;5280;42.600;23.556;2023-02-01T14:52:44;1.43;;;1.00;;
10465;SDS011;5280;42.600;23.556;2023-02-01T14:55:14;1.70;;;1.10;;
10465;SDS011;5280;42.600;23.556;2023-02-01T14:57:45;2.03;;;1.27;;
10465;SDS011;5280;42.600;23.556;2023-02-01T15:00:20;1.77;;;1.30;;
10465;SDS011;5280;42.600;23.556;2023-02-01T15:02:51;2.83;;;1.47;;
10465;SDS011;5280;42.600;23.556;2023-02-01T15:05:24;1.13;;;1.07;;
10465;SDS011;5280;42.600;23.556;2023-02-01T15:07:56;1.27;;;1.07;;
10465;SDS011;5280;42.600;23.556;2023-02-01T15:10:24;1.83;;;1.33;;
10465;SDS011;5280;42.600;23.556;2023-02-01T15:12:52;1.23;;;1.00;;
10465;SDS011;5280;42.600;23.556;2023-02-01T15:15:20;1.63;;;1.30;;
10465;SDS011;5280;42.600;23.556;2023-02-01T15:17:51;2.13;;;1.30;;
10465;SDS011;5280;42.600;23.556;2023-02-01T15:20:20;2.13;;;1.40;;
10465;SDS011;5280;42.600;23.556;2023-02-01T15:22:52;1.83;;;1.70;;
10465;SDS011;5280;42.600;23.556;2023-02-01T15:25:21;1.93;;;1.73;;
10465;SDS011;5280;42.600;23.556;2023-02-01T15:27:50;3.27;;;1.67;;
10465;SDS011;5280;42.600;23.556;2023-02-01T15:30:19;2.33;;;1.80;;